createdAt,value
2018-06-23T00:00:50.928Z,3.00
2018-06-23T00:03:19.012Z,3.67
2018-06-23T00:05:47.071Z,3.23
2018-06-23T00:08:15.200Z,3.33
2018-06-23T00:10:43.274Z,3.60
2018-06-23T00:13:11.336Z,3.47
2018-06-23T00:15:39.429Z,3.77
2018-06-23T00:18:07.528Z,3.67
2018-06-23T00:20:35.616Z,3.20
2018-06-23T00:23:03.713Z,3.40
2018-06-23T00:25:37.332Z,3.40
2018-06-23T00:28:05.439Z,3.80
2018-06-23T00:30:33.536Z,3.80
2018-06-23T00:33:01.633Z,3.60
2018-06-23T00:35:29.769Z,3.87
2018-06-23T00:37:57.841Z,3.70
2018-06-23T00:40:25.888Z,3.80
2018-06-23T00:42:54.000Z,3.93
2018-06-23T00:45:22.196Z,4.60
2018-06-23T00:47:50.277Z,3.93
2018-06-23T00:50:18.332Z,4.30
2018-06-23T00:52:46.384Z,3.93
2018-06-23T00:55:14.325Z,4.67
2018-06-23T00:57:42.404Z,4.23
2018-06-23T01:00:10.460Z,4.20
2018-06-23T01:02:38.513Z,4.87
2018-06-23T01:05:06.584Z,4.80
2018-06-23T01:07:34.772Z,4.77
2018-06-23T01:10:02.854Z,4.87
2018-06-23T01:12:30.955Z,4.67
2018-06-23T01:14:59.040Z,5.77
2018-06-23T01:17:27.180Z,4.97
2018-06-23T01:19:55.286Z,5.43
2018-06-23T01:22:23.323Z,5.83
2018-06-23T01:24:51.386Z,5.97
2018-06-23T01:27:19.432Z,6.13
2018-06-23T01:29:47.488Z,6.03
2018-06-23T01:32:15.592Z,6.90
2018-06-23T01:34:43.644Z,6.27
2018-06-23T01:37:11.705Z,6.70
2018-06-23T01:39:39.805Z,6.90
2018-06-23T01:42:07.714Z,6.77
2018-06-23T01:44:35.776Z,7.40
2018-06-23T01:47:03.896Z,7.80
2018-06-23T01:49:31.992Z,7.47
2018-06-23T01:52:00.065Z,7.87
2018-06-23T01:54:28.196Z,7.80
2018-06-23T01:56:56.245Z,8.10
2018-06-23T01:59:24.312Z,7.47
2018-06-23T02:01:52.462Z,8.53
2018-06-23T02:04:20.513Z,7.83
2018-06-23T02:06:48.560Z,7.30
2018-06-23T02:09:16.648Z,7.03
2018-06-23T02:11:44.729Z,6.90
2018-06-23T02:14:18.328Z,6.70
2018-06-23T02:16:51.904Z,7.10
2018-06-23T02:19:25.503Z,6.50
2018-06-23T02:21:59.276Z,6.30
2018-06-23T02:24:33.137Z,6.00
2018-06-23T02:27:06.720Z,6.50
2018-06-23T02:29:40.265Z,5.60
2018-06-23T02:32:13.610Z,6.17
2018-06-23T02:34:47.328Z,5.00
2018-06-23T02:37:15.381Z,5.00
2018-06-23T02:39:43.458Z,4.63
2018-06-23T02:42:11.556Z,4.03
2018-06-23T02:44:39.685Z,3.83
2018-06-23T02:47:07.690Z,3.23
2018-06-23T02:49:35.917Z,3.30
2018-06-23T02:52:04.014Z,3.30
2018-06-23T02:54:32.154Z,2.90
2018-06-23T02:57:00.233Z,2.90
2018-06-23T02:59:28.293Z,2.37
2018-06-23T03:01:56.329Z,2.33
2018-06-23T03:04:24.377Z,2.30
2018-06-23T03:06:52.460Z,2.33
2018-06-23T03:09:20.568Z,2.07
2018-06-23T03:11:48.629Z,2.20
2018-06-23T03:14:16.708Z,2.10
2018-06-23T03:16:44.761Z,1.80
2018-06-23T03:19:12.893Z,1.70
2018-06-23T03:21:40.958Z,2.00
2018-06-23T03:24:09.053Z,1.77
2018-06-23T03:26:37.161Z,1.70
2018-06-23T03:29:05.412Z,1.70
2018-06-23T03:31:33.486Z,1.80
2018-06-23T03:34:01.599Z,1.70
2018-06-23T03:36:29.668Z,1.50
2018-06-23T03:38:57.715Z,1.43
2018-06-23T03:41:25.769Z,1.33
2018-06-23T03:43:53.848Z,1.57
2018-06-23T03:46:21.884Z,1.53
2018-06-23T03:48:50.071Z,1.30
2018-06-23T03:51:18.118Z,1.60
2018-06-23T03:53:46.165Z,1.50
2018-06-23T03:56:14.245Z,1.63
2018-06-23T03:58:42.299Z,1.30
2018-06-23T04:01:10.355Z,1.40
2018-06-23T04:03:38.609Z,1.60
2018-06-23T04:06:06.696Z,1.70
2018-06-23T04:08:35.321Z,1.37
2018-06-23T04:11:03.580Z,1.37
2018-06-23T04:13:31.868Z,1.30
2018-06-23T04:16:00.160Z,1.27
2018-06-23T04:18:28.212Z,1.63
2018-06-23T04:20:56.320Z,1.50
2018-06-23T04:23:24.404Z,1.10
2018-06-23T04:25:52.500Z,1.10
2018-06-23T04:28:20.579Z,1.50
2018-06-23T04:30:48.880Z,1.30
2018-06-23T04:33:17.057Z,1.30
2018-06-23T04:35:45.113Z,1.43
2018-06-23T04:38:13.219Z,1.43
2018-06-23T04:40:41.276Z,1.33
2018-06-23T04:43:09.333Z,1.30
2018-06-23T04:45:37.268Z,1.50
2018-06-23T04:48:05.331Z,1.33
2018-06-23T04:50:33.408Z,1.23
2018-06-23T04:53:01.513Z,1.30
2018-06-23T04:55:29.625Z,1.50
2018-06-23T04:57:57.689Z,1.33
2018-06-23T05:00:26.230Z,1.70
2018-06-23T05:02:55.395Z,1.20
2018-06-23T05:05:23.784Z,1.20
2018-06-23T05:07:51.910Z,1.20
2018-06-23T05:10:19.960Z,1.63
2018-06-23T05:12:48.072Z,1.30
2018-06-23T05:15:16.401Z,1.40
2018-06-23T05:17:44.559Z,1.40
2018-06-23T05:20:12.743Z,1.60
2018-06-23T05:22:40.756Z,1.43
2018-06-23T05:25:08.817Z,1.57
2018-06-23T05:27:37.065Z,1.30
2018-06-23T05:30:05.465Z,1.40
2018-06-23T05:32:33.544Z,1.40
2018-06-23T05:35:01.732Z,1.40
2018-06-23T05:37:29.808Z,1.50
2018-06-23T05:39:57.899Z,1.27
2018-06-23T05:42:25.939Z,1.40
2018-06-23T05:44:54.057Z,1.20
2018-06-23T05:47:22.520Z,1.30
2018-06-23T05:49:50.638Z,1.23
2018-06-23T05:52:18.743Z,1.23
2018-06-23T05:54:46.796Z,1.37
2018-06-23T05:57:14.919Z,1.23
2018-06-23T05:59:42.964Z,1.30
2018-06-23T06:02:11.647Z,1.40
2018-06-23T06:04:39.789Z,1.33
2018-06-23T06:07:08.036Z,1.40
2018-06-23T06:09:36.405Z,1.50
2018-06-23T06:12:04.742Z,1.37
2018-06-23T06:14:32.952Z,1.80
2018-06-23T06:17:32.867Z,1.70
2018-06-23T06:20:03.201Z,1.60
2018-06-23T06:22:33.436Z,1.40
2018-06-23T06:25:01.509Z,1.60
2018-06-23T06:27:29.564Z,1.23
2018-06-23T06:29:58.285Z,1.77
2018-06-23T06:32:26.799Z,1.10
2018-06-23T06:34:55.168Z,1.40
2018-06-23T06:37:23.288Z,1.40
2018-06-23T06:39:51.474Z,1.20
2018-06-23T06:42:19.527Z,1.40
2018-06-23T06:44:47.584Z,1.13
2018-06-23T06:47:16.524Z,1.40
2018-06-23T06:49:44.657Z,1.30
2018-06-23T06:52:12.557Z,1.13
2018-06-23T06:54:40.789Z,1.00
2018-06-23T06:57:08.861Z,1.60
2018-06-23T06:59:36.952Z,1.50
2018-06-23T07:02:05.209Z,1.50
2018-06-23T07:04:33.533Z,1.13
2018-06-23T07:07:01.836Z,1.30
2018-06-23T07:09:29.924Z,1.30
2018-06-23T07:11:58.013Z,1.50
2018-06-23T07:14:26.150Z,1.40
2018-06-23T07:16:54.817Z,1.37
2018-06-23T07:19:22.839Z,1.40
2018-06-23T07:21:50.907Z,1.57
2018-06-23T07:24:18.961Z,1.20
2018-06-23T07:26:47.118Z,1.47
2018-06-23T07:29:15.171Z,1.33
2018-06-23T07:31:43.232Z,1.60
2018-06-23T07:34:11.328Z,1.60
2018-06-23T07:36:39.508Z,1.33
2018-06-23T07:39:09.097Z,1.47
2018-06-23T07:41:37.704Z,1.67
2018-06-23T07:44:06.174Z,1.57
2018-06-23T07:46:34.705Z,1.60
2018-06-23T07:49:02.796Z,1.70
2018-06-23T07:51:31.010Z,1.50
2018-06-23T07:53:59.072Z,1.60
2018-06-23T07:56:27.216Z,1.53
2018-06-23T07:58:55.477Z,1.47
2018-06-23T08:01:23.532Z,1.80
2018-06-23T08:03:51.796Z,1.50
2018-06-23T08:06:19.880Z,1.53
2018-06-23T08:08:47.972Z,1.60
2018-06-23T08:11:16.061Z,1.37
2018-06-23T08:13:44.137Z,1.67
2018-06-23T08:16:12.227Z,1.33
2018-06-23T08:18:40.371Z,1.40
2018-06-23T08:21:09.029Z,1.30
2018-06-23T08:23:37.176Z,1.27
2018-06-23T08:26:05.124Z,1.27
2018-06-23T08:28:34.856Z,1.57
2018-06-23T08:31:03.246Z,1.30
2018-06-23T08:33:31.337Z,1.43
2018-06-23T08:35:59.453Z,1.33
2018-06-23T08:38:27.515Z,1.47
2018-06-23T08:40:55.614Z,2.20
2018-06-23T08:43:23.752Z,1.70
2018-06-23T08:45:51.807Z,2.20
2018-06-23T09:43:35.200Z,3.10
2018-06-23T09:46:03.561Z,2.77
2018-06-23T09:48:31.838Z,2.80
2018-06-23T09:51:00.303Z,3.07
2018-06-23T09:53:28.380Z,3.03
2018-06-23T09:55:56.510Z,2.93
2018-06-23T09:58:24.612Z,2.73
2018-06-23T10:00:52.712Z,2.43
2018-06-23T10:03:20.798Z,5.10
2018-06-23T10:05:48.982Z,2.90
2018-06-23T10:08:17.042Z,3.10
2018-06-23T10:10:45.080Z,3.07
2018-06-23T10:13:13.189Z,3.07
2018-06-23T10:15:41.265Z,2.90
2018-06-23T10:18:09.417Z,2.80
2018-06-23T10:20:37.822Z,2.93
2018-06-23T10:23:06.129Z,2.73
2018-06-23T10:25:34.312Z,2.40
2018-06-23T10:28:03.429Z,12.67
2018-06-23T10:30:31.596Z,2.80
2018-06-23T10:33:00.274Z,3.00
2018-06-23T10:35:28.351Z,2.93
2018-06-23T10:37:56.524Z,2.93
2018-06-23T10:40:24.602Z,3.27
2018-06-23T10:42:52.648Z,3.30
2018-06-23T10:45:20.785Z,3.13
2018-06-23T10:47:49.012Z,3.43
2018-06-23T10:50:17.117Z,3.27
2018-06-23T10:52:45.316Z,3.13
2018-06-23T10:55:13.327Z,3.33
2018-06-23T10:57:41.661Z,3.27
2018-06-23T11:00:09.812Z,3.23
2018-06-23T11:02:37.974Z,2.87
2018-06-23T11:05:07.015Z,3.30
2018-06-23T11:07:35.360Z,3.07
2018-06-23T11:10:03.449Z,2.73
2018-06-23T11:12:31.429Z,2.80
2018-06-23T11:14:59.520Z,3.07
2018-06-23T11:17:27.620Z,3.40
2018-06-23T11:19:55.749Z,3.17
2018-06-23T11:22:23.818Z,3.43
2018-06-23T11:24:51.904Z,3.77
2018-06-23T11:27:19.992Z,3.00
2018-06-23T11:29:48.066Z,2.83
2018-06-23T11:32:16.211Z,3.70
2018-06-23T11:34:44.296Z,3.77
2018-06-23T11:37:12.376Z,3.27
2018-06-23T11:39:40.519Z,3.30
2018-06-23T11:42:08.790Z,2.13
2018-06-23T11:44:36.917Z,2.97
2018-06-23T11:47:05.500Z,2.20
2018-06-23T11:49:33.779Z,2.77
2018-06-23T11:52:02.008Z,2.60
2018-06-23T11:54:31.244Z,2.40
2018-06-23T11:56:59.339Z,2.03
2018-06-23T11:59:27.996Z,2.30
2018-06-23T12:01:56.201Z,2.57
2018-06-23T12:04:25.619Z,2.27
2018-06-23T12:06:53.840Z,2.07
2018-06-23T12:09:22.912Z,2.60
2018-06-23T12:11:51.498Z,2.53
2018-06-23T12:14:19.682Z,2.30
2018-06-23T12:16:47.830Z,2.53
2018-06-23T12:19:16.162Z,3.37
2018-06-23T12:21:44.455Z,3.67
2018-06-23T12:24:12.512Z,2.57
2018-06-23T12:26:40.593Z,2.43
2018-06-23T12:29:08.791Z,2.50
2018-06-23T12:31:37.031Z,2.87
2018-06-23T12:34:05.314Z,2.30
2018-06-23T12:36:33.517Z,2.77
2018-06-23T12:39:02.570Z,2.43
2018-06-23T12:41:30.775Z,2.37
2018-06-23T12:43:58.843Z,2.90
2018-06-23T12:46:26.785Z,2.60
2018-06-23T12:48:55.057Z,3.33
2018-06-23T12:51:23.896Z,3.10
2018-06-23T12:53:52.266Z,3.13
2018-06-23T12:56:20.343Z,3.37
2018-06-23T12:58:48.432Z,3.33
2018-06-23T13:01:16.634Z,3.43
2018-06-23T13:03:44.881Z,3.20
2018-06-23T13:06:13.108Z,2.60
2018-06-23T13:08:41.417Z,3.73
2018-06-23T13:11:09.612Z,3.03
2018-06-23T13:13:38.137Z,3.17
2018-06-23T13:16:06.230Z,3.30
2018-06-23T13:18:34.402Z,3.63
2018-06-23T13:21:02.656Z,2.63
2018-06-23T13:23:30.716Z,2.67
2018-06-23T13:25:58.839Z,2.80
2018-06-23T13:28:26.919Z,2.70
2018-06-23T13:30:55.092Z,2.70
2018-06-23T13:33:23.164Z,2.30
2018-06-23T13:35:51.248Z,2.17
2018-06-23T13:38:19.298Z,2.40
2018-06-23T13:40:47.389Z,2.33
2018-06-23T13:43:15.443Z,2.27
2018-06-23T13:45:43.375Z,2.27
2018-06-23T13:48:11.502Z,1.80
2018-06-23T13:50:39.721Z,3.60
2018-06-23T13:53:07.839Z,3.90
2018-06-23T13:55:35.942Z,4.53
2018-06-23T13:58:04.072Z,5.23
2018-06-23T14:00:31.989Z,5.10
2018-06-23T14:03:00.093Z,5.63
2018-06-23T14:05:28.160Z,5.10
2018-06-23T14:07:56.312Z,4.60
2018-06-23T14:10:24.403Z,4.80
2018-06-23T14:12:52.578Z,4.37
2018-06-23T14:15:20.704Z,4.80
2018-06-23T14:17:48.820Z,4.30
2018-06-23T14:20:16.967Z,4.40
2018-06-23T14:22:45.140Z,4.63
2018-06-23T14:25:13.329Z,4.50
2018-06-23T14:27:41.495Z,3.97
2018-06-23T14:30:09.625Z,3.70
2018-06-23T14:32:37.866Z,4.73
2018-06-23T14:35:05.961Z,4.37
2018-06-23T14:37:34.079Z,4.60
2018-06-23T14:40:02.231Z,5.23
2018-06-23T14:42:30.397Z,4.83
2018-06-23T14:44:58.492Z,4.17
2018-06-23T14:47:26.689Z,4.93
2018-06-23T14:49:54.856Z,3.90
2018-06-23T14:52:23.091Z,4.17
2018-06-23T14:54:51.449Z,3.73
2018-06-23T14:57:19.533Z,4.27
2018-06-23T14:59:47.514Z,4.27
2018-06-23T15:02:15.600Z,3.87
2018-06-23T15:04:43.917Z,3.87
2018-06-23T15:07:11.964Z,4.03
2018-06-23T15:09:51.751Z,4.27
2018-06-23T15:12:31.144Z,3.40
2018-06-23T15:14:59.027Z,3.57
2018-06-23T15:17:27.105Z,3.20
2018-06-23T15:19:55.188Z,3.10
2018-06-23T15:22:23.310Z,3.20
2018-06-23T15:24:51.521Z,3.20
2018-06-23T15:27:19.618Z,3.37
2018-06-23T15:29:47.711Z,4.40
2018-06-23T15:32:15.836Z,6.37
2018-06-23T15:34:44.204Z,3.20
2018-06-23T15:37:12.281Z,3.93
2018-06-23T15:39:40.623Z,3.00
2018-06-23T15:42:08.694Z,3.73
2018-06-23T15:44:37.003Z,3.20
2018-06-23T15:47:05.238Z,3.33
2018-06-23T15:49:33.335Z,3.47
2018-06-23T15:52:01.542Z,2.70
2018-06-23T15:54:29.658Z,3.03
2018-06-23T15:56:57.748Z,3.20
2018-06-23T15:59:25.860Z,3.17
2018-06-23T16:01:54.000Z,2.97
2018-06-23T16:04:22.187Z,3.03
2018-06-23T16:06:50.372Z,4.27
2018-06-23T16:09:18.212Z,3.50
2018-06-23T16:11:46.309Z,3.13
2018-06-23T16:14:14.437Z,3.60
2018-06-23T16:16:42.494Z,3.10
2018-06-23T16:19:10.710Z,5.73
2018-06-23T16:21:38.792Z,12.33
2018-06-23T16:24:06.915Z,9.00
2018-06-23T16:26:35.175Z,8.53
2018-06-23T16:29:03.284Z,7.30
2018-06-23T16:31:31.342Z,8.13
2018-06-23T16:33:59.460Z,7.93
2018-06-23T16:36:27.513Z,8.20
2018-06-23T16:38:55.608Z,6.73
2018-06-23T16:41:23.665Z,5.93
2018-06-23T16:43:51.734Z,6.50
2018-06-23T16:46:19.638Z,5.93
2018-06-23T16:48:47.696Z,5.73
2018-06-23T16:51:15.831Z,5.07
2018-06-23T16:53:43.924Z,5.30
2018-06-23T16:56:12.170Z,4.87
2018-06-23T16:58:40.212Z,5.30
2018-06-23T17:01:08.641Z,5.10
2018-06-23T17:03:36.857Z,4.80
2018-06-23T17:06:04.945Z,4.10
2018-06-23T17:08:33.110Z,4.17
2018-06-23T17:11:01.254Z,3.97
2018-06-23T17:13:29.304Z,4.33
2018-06-23T17:15:57.373Z,3.80
2018-06-23T17:18:25.460Z,3.90
2018-06-23T17:20:53.536Z,3.80
2018-06-23T17:23:21.697Z,3.77
2018-06-23T17:25:49.753Z,3.37
2018-06-23T17:28:17.861Z,4.03
2018-06-23T17:30:45.936Z,3.67
2018-06-23T17:33:14.013Z,3.40
2018-06-23T17:35:41.956Z,3.87
2018-06-23T17:38:10.054Z,3.60
2018-06-23T17:40:38.214Z,3.50
2018-06-23T17:43:06.312Z,3.60
2018-06-23T17:45:34.392Z,3.33
2018-06-23T17:48:02.575Z,3.50
2018-06-23T17:50:30.711Z,3.43
2018-06-23T17:52:58.768Z,3.30
2018-06-23T17:55:26.876Z,3.07
2018-06-23T17:57:55.044Z,3.60
2018-06-23T18:00:22.915Z,3.53
2018-06-23T18:02:51.033Z,3.40
2018-06-23T18:05:19.088Z,3.47
2018-06-23T18:07:47.172Z,3.33
2018-06-23T18:10:15.245Z,3.23
2018-06-23T18:12:43.336Z,3.40
2018-06-23T18:15:11.489Z,3.33
2018-06-23T18:17:39.605Z,3.43
2018-06-23T18:20:07.801Z,2.90
2018-06-23T18:22:36.200Z,2.80
2018-06-23T18:25:04.416Z,3.00
2018-06-23T18:27:32.295Z,3.03
2018-06-23T18:30:00.938Z,2.80
2018-06-23T18:32:28.990Z,3.30
2018-06-23T18:34:57.057Z,2.90
2018-06-23T18:37:25.301Z,2.50
2018-06-23T18:39:53.356Z,2.90
2018-06-23T18:42:21.534Z,2.80
2018-06-23T18:44:49.371Z,2.70
2018-06-23T18:47:17.469Z,2.90
2018-06-23T18:49:45.531Z,2.80
2018-06-23T18:52:13.584Z,2.67
2018-06-23T18:54:41.640Z,2.90
2018-06-23T18:57:09.761Z,2.37
2018-06-23T18:59:37.873Z,2.43
2018-06-23T19:02:06.007Z,2.30
2018-06-23T19:04:34.106Z,2.90
2018-06-23T19:07:02.500Z,2.30
2018-06-23T19:09:30.557Z,2.27
2018-06-23T19:11:58.615Z,2.40
2018-06-23T19:14:26.471Z,2.47
2018-06-23T19:16:54.512Z,2.40
2018-06-23T19:19:22.845Z,2.50
2018-06-23T19:21:50.904Z,2.10
2018-06-23T19:24:18.980Z,2.13
2018-06-23T19:26:47.121Z,2.27
2018-06-23T19:29:15.309Z,2.00
2018-06-23T19:31:43.375Z,2.03
2018-06-23T19:34:11.461Z,2.07
2018-06-23T19:36:39.575Z,1.87
2018-06-23T19:39:09.255Z,2.47
2018-06-23T19:41:37.383Z,2.10
2018-06-23T19:44:05.598Z,1.90
2018-06-23T19:46:33.539Z,1.90
2018-06-23T19:49:01.607Z,2.00
2018-06-23T19:51:29.669Z,2.10
2018-06-23T19:53:57.782Z,2.43
2018-06-23T19:56:25.909Z,2.17
2018-06-23T19:58:53.948Z,2.30
2018-06-23T20:01:21.997Z,2.33
2018-06-23T20:03:50.097Z,2.40
2018-06-23T20:06:18.176Z,2.23
2018-06-23T20:08:46.225Z,2.27
2018-06-23T20:11:14.316Z,2.20
2018-06-23T20:13:42.435Z,2.30
2018-06-23T20:16:10.507Z,2.30
2018-06-23T20:18:38.623Z,2.50
2018-06-23T20:21:06.732Z,2.47
2018-06-23T20:23:34.843Z,2.57
2018-06-23T20:26:02.923Z,2.53
2018-06-23T20:28:30.972Z,2.40
2018-06-23T20:30:59.025Z,2.60
2018-06-23T20:33:27.110Z,2.17
2018-06-23T20:35:55.164Z,2.40
2018-06-23T20:38:23.301Z,2.53
2018-06-23T20:40:51.364Z,2.97
2018-06-23T20:43:19.412Z,2.70
2018-06-23T20:45:47.525Z,2.10
2018-06-23T20:48:15.603Z,2.30
2018-06-23T20:50:43.665Z,2.47
2018-06-23T20:53:11.722Z,2.50
2018-06-23T20:55:39.644Z,2.50
2018-06-23T20:58:07.716Z,2.53
2018-06-23T21:00:35.815Z,2.90
2018-06-23T21:03:03.921Z,2.87
2018-06-23T21:05:31.997Z,2.93
2018-06-23T21:08:00.235Z,2.57
2018-06-23T21:10:36.122Z,2.67
2018-06-23T21:13:04.198Z,2.37
2018-06-23T21:15:32.271Z,2.67
2018-06-23T21:18:00.336Z,2.60
2018-06-23T21:20:28.592Z,2.87
2018-06-23T21:22:56.731Z,2.40
2018-06-23T21:25:24.652Z,2.60
2018-06-23T21:27:52.994Z,2.97
2018-06-23T21:30:21.046Z,2.97
2018-06-23T21:32:49.100Z,2.83
2018-06-23T21:35:17.152Z,2.53
2018-06-23T21:37:45.265Z,2.87
2018-06-23T21:40:13.466Z,2.83
2018-06-23T21:42:41.516Z,2.83
2018-06-23T21:45:09.761Z,2.50
2018-06-23T21:47:37.851Z,2.53
2018-06-23T21:50:06.009Z,2.83
2018-06-23T21:52:34.742Z,2.57
2018-06-23T21:55:03.328Z,2.80
2018-06-23T21:57:31.421Z,3.17
2018-06-23T21:59:59.898Z,2.70
2018-06-23T22:02:27.972Z,2.83
2018-06-23T22:04:56.089Z,2.87
2018-06-23T22:07:24.131Z,2.87
2018-06-23T22:09:52.216Z,2.80
2018-06-23T22:12:20.365Z,2.87
2018-06-23T22:14:48.520Z,2.77
2018-06-23T22:17:16.601Z,2.70
2018-06-23T22:19:44.677Z,2.90
2018-06-23T22:22:12.748Z,2.83
2018-06-23T22:24:40.827Z,2.90
2018-06-23T22:27:08.888Z,3.00
2018-06-23T22:29:37.032Z,2.90
2018-06-23T22:32:05.130Z,3.00
2018-06-23T22:34:33.027Z,3.10
2018-06-23T22:37:00.952Z,2.53
2018-06-23T22:39:29.062Z,2.83
2018-06-23T22:41:57.121Z,2.60
2018-06-23T22:44:25.196Z,2.80
2018-06-23T22:46:53.249Z,3.00
2018-06-23T22:49:21.372Z,2.63
2018-06-23T22:51:49.496Z,2.90
2018-06-23T22:54:17.576Z,2.90
2018-06-23T22:56:45.652Z,3.10
2018-06-23T22:59:13.721Z,2.90
2018-06-23T23:01:41.800Z,2.40
2018-06-23T23:04:10.093Z,2.77
2018-06-23T23:06:38.188Z,2.90
2018-06-23T23:09:08.153Z,3.17
2018-06-23T23:11:36.150Z,3.00
2018-06-23T23:14:04.401Z,3.10
2018-06-23T23:16:32.540Z,2.67
2018-06-23T23:19:00.621Z,2.60
2018-06-23T23:21:28.690Z,2.87
2018-06-23T23:23:56.775Z,2.70
2018-06-23T23:26:24.940Z,2.80
2018-06-23T23:28:53.000Z,2.60
2018-06-23T23:31:21.057Z,2.90
2018-06-23T23:33:49.112Z,2.63
2018-06-23T23:36:17.177Z,2.60
2018-06-23T23:38:45.338Z,3.07
2018-06-23T23:41:13.436Z,2.50
2018-06-23T23:43:41.392Z,2.73
2018-06-23T23:46:09.624Z,2.90
2018-06-23T23:48:37.748Z,2.67
2018-06-23T23:51:06.035Z,2.40
2018-06-23T23:53:34.198Z,2.90
2018-06-23T23:56:02.389Z,2.73
2018-06-23T23:58:30.521Z,2.90
